Dogwood Acres, Texas
Current Conditions -  °F | °C
As of 6:53 AM on Friday 28 Nov 2014 (Local Time) from KIAH Reporting Station
Clear Clear  
Wind Chill: 38°   Ceiling: Unl
Heat Index: 42°   Visibility: 10mi
Dew Point: 40°   Wind: 6mph
Humidity: 92%   Direction: 100°E
Pressure: 30.36"   Gusts: NA
Location:  30.1192°N, 95.2824°W
Report Text: KIAH 281253Z 10005KT 10SM CLR 06/04 A3036 RMK AO2 SLP281 T00560044
Loading
Personal Weather Stations






























Interactive Weather Map New forecast layout! Learn more

10-Day Weather Forecast

Advertisements
Track Severe Weather on mobile